sensor_id;sensor_type;location;lat;lon;timestamp;pressure;altitude;pressure_sealevel;temperature;humidity
66668;BME280;57205;51.438;-2.006;2023-11-19T00:02:19;100167.31;;;10.29;100.00
66668;BME280;57205;51.438;-2.006;2023-11-19T00:04:44;100161.94;;;10.34;100.00
66668;BME280;57205;51.438;-2.006;2023-11-19T00:07:10;100169.41;;;10.37;100.00
66668;BME280;57205;51.438;-2.006;2023-11-19T00:09:37;100167.53;;;10.43;100.00
66668;BME280;57205;51.438;-2.006;2023-11-19T00:12:04;100170.72;;;10.45;100.00
66668;BME280;57205;51.438;-2.006;2023-11-19T00:14:30;100178.47;;;10.46;100.00
66668;BME280;57205;51.438;-2.006;2023-11-19T00:16:56;100164.53;;;10.54;100.00
66668;BME280;57205;51.438;-2.006;2023-11-19T00:19:21;100173.34;;;10.60;100.00
66668;BME280;57205;51.438;-2.006;2023-11-19T00:21:47;100158.38;;;10.59;100.00
66668;BME280;57205;51.438;-2.006;2023-11-19T00:24:12;100162.34;;;10.61;100.00
66668;BME280;57205;51.438;-2.006;2023-11-19T00:26:38;100144.16;;;10.63;100.00
66668;BME280;57205;51.438;-2.006;2023-11-19T00:29:04;100142.81;;;10.61;100.00
66668;BME280;57205;51.438;-2.006;2023-11-19T00:31:29;100146.59;;;10.60;100.00
66668;BME280;57205;51.438;-2.006;2023-11-19T00:33:55;100135.63;;;10.56;100.00
66668;BME280;57205;51.438;-2.006;2023-11-19T00:36:20;100119.63;;;10.51;100.00
66668;BME280;57205;51.438;-2.006;2023-11-19T00:38:46;100123.38;;;10.45;100.00
66668;BME280;57205;51.438;-2.006;2023-11-19T00:41:11;100133.03;;;10.41;100.00
66668;BME280;57205;51.438;-2.006;2023-11-19T00:43:37;100129.31;;;10.37;100.00
66668;BME280;57205;51.438;-2.006;2023-11-19T00:46:03;100130.66;;;10.35;100.00
66668;BME280;57205;51.438;-2.006;2023-11-19T00:48:32;100132.81;;;10.33;100.00
66668;BME280;57205;51.438;-2.006;2023-11-19T00:50:57;100125.56;;;10.33;100.00
66668;BME280;57205;51.438;-2.006;2023-11-19T00:53:23;100127.47;;;10.33;100.00
66668;BME280;57205;51.438;-2.006;2023-11-19T00:55:48;100132.53;;;10.34;100.00
66668;BME280;57205;51.438;-2.006;2023-11-19T00:58:14;100127.44;;;10.38;100.00
66668;BME280;57205;51.438;-2.006;2023-11-19T01:00:39;100134.13;;;10.35;100.00
66668;BME280;57205;51.438;-2.006;2023-11-19T01:03:05;100124.50;;;10.34;100.00
66668;BME280;57205;51.438;-2.006;2023-11-19T01:05:32;100123.41;;;10.35;100.00
66668;BME280;57205;51.438;-2.006;2023-11-19T01:07:58;100126.38;;;10.34;100.00
66668;BME280;57205;51.438;-2.006;2023-11-19T01:10:23;100119.97;;;10.30;100.00
66668;BME280;57205;51.438;-2.006;2023-11-19T01:12:49;100119.69;;;10.31;100.00
66668;BME280;57205;51.438;-2.006;2023-11-19T01:15:15;100118.34;;;10.34;100.00
66668;BME280;57205;51.438;-2.006;2023-11-19T01:17:40;100121.28;;;10.37;100.00
66668;BME280;57205;51.438;-2.006;2023-11-19T01:20:06;100120.47;;;10.37;100.00
66668;BME280;57205;51.438;-2.006;2023-11-19T01:22:32;100117.53;;;10.38;100.00
66668;BME280;57205;51.438;-2.006;2023-11-19T01:24:57;100122.34;;;10.41;100.00
66668;BME280;57205;51.438;-2.006;2023-11-19T01:27:24;100110.03;;;10.40;100.00
66668;BME280;57205;51.438;-2.006;2023-11-19T01:29:50;100116.44;;;10.39;100.00
66668;BME280;57205;51.438;-2.006;2023-11-19T01:32:15;100116.22;;;10.36;100.00
66668;BME280;57205;51.438;-2.006;2023-11-19T01:34:41;100111.94;;;10.35;100.00
66668;BME280;57205;51.438;-2.006;2023-11-19T01:37:07;100103.41;;;10.33;100.00
66668;BME280;57205;51.438;-2.006;2023-11-19T01:39:34;100111.94;;;10.35;100.00
66668;BME280;57205;51.438;-2.006;2023-11-19T01:42:00;100114.34;;;10.31;100.00
66668;BME280;57205;51.438;-2.006;2023-11-19T01:44:25;100125.59;;;10.28;100.00
66668;BME280;57205;51.438;-2.006;2023-11-19T01:46:50;100125.06;;;10.26;100.00
66668;BME280;57205;51.438;-2.006;2023-11-19T01:49:18;100123.47;;;10.25;100.00
66668;BME280;57205;51.438;-2.006;2023-11-19T01:51:45;100114.13;;;10.23;100.00
66668;BME280;57205;51.438;-2.006;2023-11-19T01:54:12;100108.78;;;10.23;100.00
66668;BME280;57205;51.438;-2.006;2023-11-19T01:56:38;100113.59;;;10.21;100.00
66668;BME280;57205;51.438;-2.006;2023-11-19T01:59:07;100114.94;;;10.18;100.00
66668;BME280;57205;51.438;-2.006;2023-11-19T02:01:33;100096.78;;;10.15;100.00
66668;BME280;57205;51.438;-2.006;2023-11-19T02:04:03;100106.66;;;10.15;100.00
66668;BME280;57205;51.438;-2.006;2023-11-19T02:06:30;100094.94;;;10.11;100.00
66668;BME280;57205;51.438;-2.006;2023-11-19T02:08:57;100091.72;;;10.09;100.00
66668;BME280;57205;51.438;-2.006;2023-11-19T02:11:23;100098.94;;;10.03;100.00
66668;BME280;57205;51.438;-2.006;2023-11-19T02:13:49;100091.19;;;10.02;100.00
66668;BME280;57205;51.438;-2.006;2023-11-19T02:16:14;100094.66;;;10.02;100.00
66668;BME280;57205;51.438;-2.006;2023-11-19T02:18:40;100082.34;;;10.06;100.00
66668;BME280;57205;51.438;-2.006;2023-11-19T02:21:05;100080.72;;;10.05;100.00
66668;BME280;57205;51.438;-2.006;2023-11-19T02:23:31;100075.38;;;10.05;100.00
66668;BME280;57205;51.438;-2.006;2023-11-19T02:28:26;100083.44;;;10.00;100.00
66668;BME280;57205;51.438;-2.006;2023-11-19T02:30:51;100083.72;;;9.99;100.00
66668;BME280;57205;51.438;-2.006;2023-11-19T02:33:16;100087.72;;;9.96;100.00
66668;BME280;57205;51.438;-2.006;2023-11-19T02:35:42;100080.50;;;9.97;100.00
66668;BME280;57205;51.438;-2.006;2023-11-19T02:38:07;100085.56;;;9.98;100.00
66668;BME280;57205;51.438;-2.006;2023-11-19T02:40:33;100092.00;;;9.97;100.00
66668;BME280;57205;51.438;-2.006;2023-11-19T02:42:58;100093.31;;;10.00;100.00
66668;BME280;57205;51.438;-2.006;2023-11-19T02:45:25;100085.81;;;10.02;100.00
66668;BME280;57205;51.438;-2.006;2023-11-19T02:47:51;100089.03;;;10.09;100.00
66668;BME280;57205;51.438;-2.006;2023-11-19T02:50:20;100068.72;;;10.08;100.00
66668;BME280;57205;51.438;-2.006;2023-11-19T02:52:56;100065.50;;;10.16;100.00
66668;BME280;57205;51.438;-2.006;2023-11-19T02:55:22;100067.91;;;10.17;100.00
66668;BME280;57205;51.438;-2.006;2023-11-19T02:57:49;100070.88;;;10.11;100.00
66668;BME280;57205;51.438;-2.006;2023-11-19T03:00:18;100075.91;;;10.07;100.00
66668;BME280;57205;51.438;-2.006;2023-11-19T03:02:48;100063.09;;;10.04;100.00
66668;BME280;57205;51.438;-2.006;2023-11-19T03:05:24;100064.97;;;10.04;100.00
66668;BME280;57205;51.438;-2.006;2023-11-19T03:07:50;100069.25;;;10.00;100.00
66668;BME280;57205;51.438;-2.006;2023-11-19T03:10:17;100059.91;;;10.02;100.00
66668;BME280;57205;51.438;-2.006;2023-11-19T03:12:43;100046.25;;;10.04;100.00
66668;BME280;57205;51.438;-2.006;2023-11-19T03:15:09;100046.00;;;10.05;100.00
66668;BME280;57205;51.438;-2.006;2023-11-19T03:17:36;100034.78;;;10.03;100.00
66668;BME280;57205;51.438;-2.006;2023-11-19T03:20:05;100021.97;;;10.00;100.00
66668;BME280;57205;51.438;-2.006;2023-11-19T03:22:32;100012.88;;;9.96;100.00
66668;BME280;57205;51.438;-2.006;2023-11-19T03:24:59;100022.28;;;9.94;100.00
66668;BME280;57205;51.438;-2.006;2023-11-19T03:27:25;100014.53;;;9.92;100.00
66668;BME280;57205;51.438;-2.006;2023-11-19T03:29:50;100013.72;;;9.92;100.00
66668;BME280;57205;51.438;-2.006;2023-11-19T03:32:16;100003.84;;;9.87;100.00
66668;BME280;57205;51.438;-2.006;2023-11-19T03:34:41;100012.16;;;9.85;100.00
66668;BME280;57205;51.438;-2.006;2023-11-19T03:37:07;100025.25;;;9.82;100.00
66668;BME280;57205;51.438;-2.006;2023-11-19T03:39:32;100024.16;;;9.83;100.00
66668;BME280;57205;51.438;-2.006;2023-11-19T03:41:58;100021.50;;;9.88;100.00
66668;BME280;57205;51.438;-2.006;2023-11-19T03:44:23;100019.59;;;9.94;100.00
66668;BME280;57205;51.438;-2.006;2023-11-19T03:46:52;100015.03;;;9.99;100.00
66668;BME280;57205;51.438;-2.006;2023-11-19T03:49:17;100013.91;;;10.05;100.00
66668;BME280;57205;51.438;-2.006;2023-11-19T03:51:43;100014.44;;;10.07;100.00
66668;BME280;57205;51.438;-2.006;2023-11-19T03:54:08;100014.44;;;10.07;100.00
66668;BME280;57205;51.438;-2.006;2023-11-19T03:56:34;100004.56;;;10.08;100.00
66668;BME280;57205;51.438;-2.006;2023-11-19T03:58:59;100005.66;;;10.07;100.00
66668;BME280;57205;51.438;-2.006;2023-11-19T04:01:25;100013.38;;;10.08;100.00
66668;BME280;57205;51.438;-2.006;2023-11-19T04:03:50;100023.00;;;10.09;100.00
66668;BME280;57205;51.438;-2.006;2023-11-19T04:06:16;100006.72;;;10.11;100.00
66668;BME280;57205;51.438;-2.006;2023-11-19T04:08:41;100015.00;;;10.09;100.00
66668;BME280;57205;51.438;-2.006;2023-11-19T04:11:06;100005.38;;;10.08;100.00
66668;BME280;57205;51.438;-2.006;2023-11-19T04:13:34;100004.31;;;10.09;100.00
66668;BME280;57205;51.438;-2.006;2023-11-19T04:16:00;99996.53;;;10.08;100.00
66668;BME280;57205;51.438;-2.006;2023-11-19T04:18:25;100004.31;;;10.09;100.00
66668;BME280;57205;51.438;-2.006;2023-11-19T04:20:50;100008.59;;;10.10;100.00
66668;BME280;57205;51.438;-2.006;2023-11-19T04:23:16;100015.50;;;10.16;100.00
66668;BME280;57205;51.438;-2.006;2023-11-19T04:25:42;100020.53;;;10.23;100.00
66668;BME280;57205;51.438;-2.006;2023-11-19T04:28:07;100033.09;;;10.27;100.00
66668;BME280;57205;51.438;-2.006;2023-11-19T04:30:33;100055.50;;;10.31;100.00
66668;BME280;57205;51.438;-2.006;2023-11-19T04:32:59;100048.03;;;10.33;100.00
66668;BME280;57205;51.438;-2.006;2023-11-19T04:35:24;100060.38;;;10.29;100.00
66668;BME280;57205;51.438;-2.006;2023-11-19T04:37:51;100053.97;;;10.25;100.00
66668;BME280;57205;51.438;-2.006;2023-11-19T04:40:17;100049.44;;;10.21;100.00
66668;BME280;57205;51.438;-2.006;2023-11-19T04:42:43;100042.50;;;10.15;100.00
66668;BME280;57205;51.438;-2.006;2023-11-19T04:45:09;100051.63;;;10.09;100.00
66668;BME280;57205;51.438;-2.006;2023-11-19T04:47:39;100053.75;;;10.02;100.00
66668;BME280;57205;51.438;-2.006;2023-11-19T04:50:04;100055.94;;;9.95;100.00
66668;BME280;57205;51.438;-2.006;2023-11-19T04:52:30;100047.66;;;9.91;100.00
66668;BME280;57205;51.438;-2.006;2023-11-19T04:54:55;100050.06;;;9.93;100.00
66668;BME280;57205;51.438;-2.006;2023-11-19T04:57:21;100051.66;;;9.94;100.00
66668;BME280;57205;51.438;-2.006;2023-11-19T04:59:46;100046.06;;;9.90;100.00
66668;BME280;57205;51.438;-2.006;2023-11-19T05:02:12;100057.81;;;9.89;100.00
66668;BME280;57205;51.438;-2.006;2023-11-19T05:04:42;100045.78;;;9.86;100.00
66668;BME280;57205;51.438;-2.006;2023-11-19T05:07:09;100050.34;;;9.91;100.00
66668;BME280;57205;51.438;-2.006;2023-11-19T05:09:34;100049.53;;;9.91;100.00
66668;BME280;57205;51.438;-2.006;2023-11-19T05:12:00;100057.78;;;9.94;100.00
66668;BME280;57205;51.438;-2.006;2023-11-19T05:14:27;100058.84;;;9.98;100.00
66668;BME280;57205;51.438;-2.006;2023-11-19T05:16:53;100063.13;;;9.94;100.00
66668;BME280;57205;51.438;-2.006;2023-11-19T05:19:18;100049.81;;;9.89;100.00
66668;BME280;57205;51.438;-2.006;2023-11-19T05:21:44;100054.63;;;9.87;100.00
66668;BME280;57205;51.438;-2.006;2023-11-19T05:24:09;100040.47;;;9.81;100.00
66668;BME280;57205;51.438;-2.006;2023-11-19T05:26:35;100050.38;;;9.76;100.00
66668;BME280;57205;51.438;-2.006;2023-11-19T05:29:00;100043.72;;;9.68;100.00
66668;BME280;57205;51.438;-2.006;2023-11-19T05:31:26;100049.63;;;9.65;100.00
66668;BME280;57205;51.438;-2.006;2023-11-19T05:33:52;100048.84;;;9.60;100.00
66668;BME280;57205;51.438;-2.006;2023-11-19T05:36:17;100050.69;;;9.59;100.00
66668;BME280;57205;51.438;-2.006;2023-11-19T05:38:43;100039.75;;;9.56;100.00
66668;BME280;57205;51.438;-2.006;2023-11-19T05:41:09;100048.06;;;9.49;100.00
66668;BME280;57205;51.438;-2.006;2023-11-19T05:43:35;100044.88;;;9.47;100.00
66668;BME280;57205;51.438;-2.006;2023-11-19T05:46:00;100039.78;;;9.46;100.00
66668;BME280;57205;51.438;-2.006;2023-11-19T05:48:26;100040.34;;;9.43;100.00
66668;BME280;57205;51.438;-2.006;2023-11-19T05:50:53;100043.56;;;9.40;100.00
66668;BME280;57205;51.438;-2.006;2023-11-19T05:53:18;100046.22;;;9.40;100.00
66668;BME280;57205;51.438;-2.006;2023-11-19T05:55:44;100045.13;;;9.46;100.00
66668;BME280;57205;51.438;-2.006;2023-11-19T05:58:27;100045.66;;;9.53;100.00
66668;BME280;57205;51.438;-2.006;2023-11-19T06:00:57;100042.97;;;9.58;100.00
66668;BME280;57205;51.438;-2.006;2023-11-19T06:03:23;100045.38;;;9.59;100.00
66668;BME280;57205;51.438;-2.006;2023-11-19T06:05:49;100048.81;;;9.65;100.00
66668;BME280;57205;51.438;-2.006;2023-11-19T06:08:15;100046.69;;;9.62;100.00
66668;BME280;57205;51.438;-2.006;2023-11-19T06:10:42;100045.63;;;9.58;100.00
66668;BME280;57205;51.438;-2.006;2023-11-19T06:13:07;100046.69;;;9.57;100.00
66668;BME280;57205;51.438;-2.006;2023-11-19T06:15:35;100046.69;;;9.57;100.00
66668;BME280;57205;51.438;-2.006;2023-11-19T06:18:01;100047.22;;;9.59;100.00
66668;BME280;57205;51.438;-2.006;2023-11-19T06:20:32;100057.91;;;9.59;100.00
66668;BME280;57205;51.438;-2.006;2023-11-19T06:22:57;100055.22;;;9.59;100.00
66668;BME280;57205;51.438;-2.006;2023-11-19T06:25:23;100060.59;;;9.54;100.00
66668;BME280;57205;51.438;-2.006;2023-11-19T06:27:52;100061.69;;;9.53;100.00
66668;BME280;57205;51.438;-2.006;2023-11-19T06:30:18;100069.69;;;9.58;100.00
66668;BME280;57205;51.438;-2.006;2023-11-19T06:32:43;100059.50;;;9.65;100.00
66668;BME280;57205;51.438;-2.006;2023-11-19T06:35:09;100063.75;;;9.71;100.00
66668;BME280;57205;51.438;-2.006;2023-11-19T06:37:35;100045.28;;;9.79;100.00
66668;BME280;57205;51.438;-2.006;2023-11-19T06:40:01;100046.59;;;9.87;100.00
66668;BME280;57205;51.438;-2.006;2023-11-19T06:42:26;100046.06;;;9.90;100.00
66668;BME280;57205;51.438;-2.006;2023-11-19T06:44:54;100035.31;;;10.00;100.00
66668;BME280;57205;51.438;-2.006;2023-11-19T06:47:22;100035.56;;;10.09;100.00
66668;BME280;57205;51.438;-2.006;2023-11-19T06:49:48;100030.75;;;10.16;100.00
66668;BME280;57205;51.438;-2.006;2023-11-19T06:52:13;100036.31;;;10.24;100.00
66668;BME280;57205;51.438;-2.006;2023-11-19T06:54:39;100037.34;;;10.28;100.00
66668;BME280;57205;51.438;-2.006;2023-11-19T06:57:04;100034.66;;;10.33;100.00
66668;BME280;57205;51.438;-2.006;2023-11-19T06:59:30;100041.56;;;10.39;100.00
66668;BME280;57205;51.438;-2.006;2023-11-19T07:01:56;100045.59;;;10.42;100.00
66668;BME280;57205;51.438;-2.006;2023-11-19T07:04:21;100041.00;;;10.47;100.00
66668;BME280;57205;51.438;-2.006;2023-11-19T07:06:47;100038.59;;;10.46;100.00
66668;BME280;57205;51.438;-2.006;2023-11-19T07:09:13;100048.75;;;10.49;100.00
66668;BME280;57205;51.438;-2.006;2023-11-19T07:11:40;100049.25;;;10.51;100.00
66668;BME280;57205;51.438;-2.006;2023-11-19T07:14:07;100046.88;;;10.49;100.00
66668;BME280;57205;51.438;-2.006;2023-11-19T07:16:33;100046.88;;;10.49;100.00
66668;BME280;57205;51.438;-2.006;2023-11-19T07:19:02;100043.16;;;10.45;100.00
66668;BME280;57205;51.438;-2.006;2023-11-19T07:21:28;100045.78;;;10.50;100.00
66668;BME280;57205;51.438;-2.006;2023-11-19T07:23:57;100053.53;;;10.52;100.00
66668;BME280;57205;51.438;-2.006;2023-11-19T07:26:22;100049.53;;;10.49;100.00
66668;BME280;57205;51.438;-2.006;2023-11-19T07:28:51;100057.31;;;10.46;100.00
66668;BME280;57205;51.438;-2.006;2023-11-19T07:31:17;100050.66;;;10.43;100.00
66668;BME280;57205;51.438;-2.006;2023-11-19T07:33:45;100044.50;;;10.43;100.00
66668;BME280;57205;51.438;-2.006;2023-11-19T07:36:11;100045.06;;;10.40;100.00
66668;BME280;57205;51.438;-2.006;2023-11-19T07:38:37;100049.06;;;10.37;100.00
66668;BME280;57205;51.438;-2.006;2023-11-19T07:41:04;100051.50;;;10.34;100.00
66668;BME280;57205;51.438;-2.006;2023-11-19T07:43:30;100055.50;;;10.36;100.00
66668;BME280;57205;51.438;-2.006;2023-11-19T07:45:56;100055.50;;;10.36;100.00
66668;BME280;57205;51.438;-2.006;2023-11-19T07:48:24;100064.59;;;10.40;100.00
66668;BME280;57205;51.438;-2.006;2023-11-19T07:50:49;100079.81;;;10.40;100.00
66668;BME280;57205;51.438;-2.006;2023-11-19T07:53:18;100079.28;;;10.38;100.00
66668;BME280;57205;51.438;-2.006;2023-11-19T07:55:44;100085.22;;;10.35;100.00
66668;BME280;57205;51.438;-2.006;2023-11-19T07:58:10;100099.09;;;10.32;100.00
66668;BME280;57205;51.438;-2.006;2023-11-19T08:00:36;100097.28;;;10.22;100.00
66668;BME280;57205;51.438;-2.006;2023-11-19T08:03:03;100095.69;;;10.21;100.00
66668;BME280;57205;51.438;-2.006;2023-11-19T08:05:29;100084.50;;;10.14;100.00
66668;BME280;57205;51.438;-2.006;2023-11-19T08:07:55;100084.50;;;10.14;100.00
66668;BME280;57205;51.438;-2.006;2023-11-19T08:10:21;100087.16;;;10.14;100.00
66668;BME280;57205;51.438;-2.006;2023-11-19T08:12:49;100091.97;;;10.17;100.00
66668;BME280;57205;51.438;-2.006;2023-11-19T08:15:15;100091.97;;;10.17;100.00
66668;BME280;57205;51.438;-2.006;2023-11-19T08:17:41;100083.38;;;10.20;100.00
66668;BME280;57205;51.438;-2.006;2023-11-19T08:20:08;100073.50;;;10.21;100.00
66668;BME280;57205;51.438;-2.006;2023-11-19T08:22:37;100069.19;;;10.25;100.00
66668;BME280;57205;51.438;-2.006;2023-11-19T08:25:07;100069.69;;;10.32;100.00
66668;BME280;57205;51.438;-2.006;2023-11-19T08:27:33;100054.41;;;10.37;100.00
66668;BME280;57205;51.438;-2.006;2023-11-19T08:29:58;100063.16;;;10.48;100.00
66668;BME280;57205;51.438;-2.006;2023-11-19T08:32:25;100052.66;;;10.61;100.00
66668;BME280;57205;51.438;-2.006;2023-11-19T08:34:50;100048.78;;;10.82;100.00
66668;BME280;57205;51.438;-2.006;2023-11-19T08:37:16;100032.22;;;11.09;100.00
66668;BME280;57205;51.438;-2.006;2023-11-19T08:39:46;100007.06;;;11.34;100.00
66668;BME280;57205;51.438;-2.006;2023-11-19T08:42:12;100015.13;;;11.57;100.00
66668;BME280;57205;51.438;-2.006;2023-11-19T08:44:37;100004.53;;;11.71;100.00
66668;BME280;57205;51.438;-2.006;2023-11-19T08:47:03;99996.94;;;12.02;100.00
66668;BME280;57205;51.438;-2.006;2023-11-19T08:49:29;100006.28;;;12.41;100.00
66668;BME280;57205;51.438;-2.006;2023-11-19T08:51:54;99988.78;;;12.62;100.00
66668;BME280;57205;51.438;-2.006;2023-11-19T08:54:20;99987.69;;;12.63;100.00
66668;BME280;57205;51.438;-2.006;2023-11-19T08:56:46;99985.84;;;12.45;100.00
66668;BME280;57205;51.438;-2.006;2023-11-19T08:59:12;99988.53;;;12.27;100.00
66668;BME280;57205;51.438;-2.006;2023-11-19T09:01:38;100004.31;;;12.10;100.00
66668;BME280;57205;51.438;-2.006;2023-11-19T09:04:03;100001.63;;;11.91;100.00
66668;BME280;57205;51.438;-2.006;2023-11-19T09:06:29;100004.72;;;11.80;100.00
66668;BME280;57205;51.438;-2.006;2023-11-19T09:08:55;100004.00;;;11.74;100.00
66668;BME280;57205;51.438;-2.006;2023-11-19T09:11:25;100017.72;;;11.67;100.00
66668;BME280;57205;51.438;-2.006;2023-11-19T09:13:51;100026.34;;;11.59;100.00
66668;BME280;57205;51.438;-2.006;2023-11-19T09:16:16;100021.91;;;11.50;100.00
66668;BME280;57205;51.438;-2.006;2023-11-19T09:18:42;100005.72;;;11.36;100.00
66668;BME280;57205;51.438;-2.006;2023-11-19T09:21:07;100017.31;;;11.27;100.00
66668;BME280;57205;51.438;-2.006;2023-11-19T09:23:33;100017.69;;;11.20;100.00
66668;BME280;57205;51.438;-2.006;2023-11-19T09:26:04;100013.72;;;11.13;100.00
66668;BME280;57205;51.438;-2.006;2023-11-19T09:28:30;100018.03;;;11.09;100.00
66668;BME280;57205;51.438;-2.006;2023-11-19T09:30:56;100013.22;;;11.11;100.00
66668;BME280;57205;51.438;-2.006;2023-11-19T09:33:21;100000.34;;;11.13;100.00
66668;BME280;57205;51.438;-2.006;2023-11-19T09:35:47;100002.38;;;11.21;100.00
66668;BME280;57205;51.438;-2.006;2023-11-19T09:38:15;99997.03;;;11.21;100.00
66668;BME280;57205;51.438;-2.006;2023-11-19T09:40:40;100000.44;;;11.26;100.00
66668;BME280;57205;51.438;-2.006;2023-11-19T09:43:07;99999.38;;;11.27;100.00
66668;BME280;57205;51.438;-2.006;2023-11-19T09:45:47;99994.25;;;11.31;100.00
66668;BME280;57205;51.438;-2.006;2023-11-19T09:48:16;100003.31;;;11.35;100.00
66668;BME280;57205;51.438;-2.006;2023-11-19T09:50:42;99999.22;;;11.42;100.00
66668;BME280;57205;51.438;-2.006;2023-11-19T09:53:08;99994.66;;;11.43;100.00
66668;BME280;57205;51.438;-2.006;2023-11-19T09:55:33;100002.69;;;11.43;100.00
66668;BME280;57205;51.438;-2.006;2023-11-19T09:58:00;99990.78;;;11.54;100.00
66668;BME280;57205;51.438;-2.006;2023-11-19T10:00:27;99992.84;;;11.62;100.00
66668;BME280;57205;51.438;-2.006;2023-11-19T10:02:53;99999.47;;;11.69;100.00
66668;BME280;57205;51.438;-2.006;2023-11-19T10:05:20;99997.53;;;11.75;100.00
66668;BME280;57205;51.438;-2.006;2023-11-19T10:07:47;99993.72;;;11.81;100.00
66668;BME280;57205;51.438;-2.006;2023-11-19T10:10:12;100003.78;;;11.89;100.00
66668;BME280;57205;51.438;-2.006;2023-11-19T10:12:43;99994.16;;;11.88;100.00
66668;BME280;57205;51.438;-2.006;2023-11-19T10:15:17;99995.72;;;11.89;100.00
66668;BME280;57205;51.438;-2.006;2023-11-19T10:17:45;100013.72;;;11.89;100.00
66668;BME280;57205;51.438;-2.006;2023-11-19T10:20:10;100006.97;;;11.91;100.00
66668;BME280;57205;51.438;-2.006;2023-11-19T10:22:39;100002.06;;;11.98;100.00
66668;BME280;57205;51.438;-2.006;2023-11-19T10:25:15;100010.91;;;11.99;100.00
66668;BME280;57205;51.438;-2.006;2023-11-19T10:27:47;100008.19;;;12.04;100.00
66668;BME280;57205;51.438;-2.006;2023-11-19T10:30:12;100013.47;;;12.09;100.00
66668;BME280;57205;51.438;-2.006;2023-11-19T10:32:38;100008.03;;;12.14;100.00
66668;BME280;57205;51.438;-2.006;2023-11-19T10:35:07;100007.22;;;12.13;100.00
66668;BME280;57205;51.438;-2.006;2023-11-19T10:37:32;99994.31;;;12.15;100.00
66668;BME280;57205;51.438;-2.006;2023-11-19T10:40:00;99983.53;;;12.20;100.00
66668;BME280;57205;51.438;-2.006;2023-11-19T10:42:26;99989.69;;;12.21;100.00
66668;BME280;57205;51.438;-2.006;2023-11-19T10:44:51;99997.47;;;12.22;100.00
66668;BME280;57205;51.438;-2.006;2023-11-19T10:47:19;99993.59;;;12.28;100.00
66668;BME280;57205;51.438;-2.006;2023-11-19T10:49:45;99992.31;;;12.26;100.00
66668;BME280;57205;51.438;-2.006;2023-11-19T10:52:18;100003.81;;;12.26;100.00
66668;BME280;57205;51.438;-2.006;2023-11-19T10:54:50;100000.28;;;12.31;100.00
66668;BME280;57205;51.438;-2.006;2023-11-19T10:57:20;100000.56;;;12.29;100.00
66668;BME280;57205;51.438;-2.006;2023-11-19T10:59:47;99998.97;;;12.28;100.00
66668;BME280;57205;51.438;-2.006;2023-11-19T11:02:16;100006.22;;;12.28;100.00
66668;BME280;57205;51.438;-2.006;2023-11-19T11:04:47;100004.84;;;12.30;100.00
66668;BME280;57205;51.438;-2.006;2023-11-19T11:07:14;100004.84;;;12.30;100.00
66668;BME280;57205;51.438;-2.006;2023-11-19T11:09:41;100000.56;;;12.29;100.00
66668;BME280;57205;51.438;-2.006;2023-11-19T11:12:09;100002.44;;;12.29;100.00
66668;BME280;57205;51.438;-2.006;2023-11-19T11:14:37;99999.97;;;12.32;100.00
66668;BME280;57205;51.438;-2.006;2023-11-19T11:17:05;99997.09;;;12.29;100.00
66668;BME280;57205;51.438;-2.006;2023-11-19T11:19:33;99997.88;;;12.29;100.00
66668;BME280;57205;51.438;-2.006;2023-11-19T11:22:00;99999.19;;;12.32;100.00
66668;BME280;57205;51.438;-2.006;2023-11-19T11:30:14;99977.00;;;12.26;100.00
66668;BME280;57205;51.438;-2.006;2023-11-19T11:33:14;99982.94;;;12.23;100.00
66668;BME280;57205;51.438;-2.006;2023-11-19T11:35:58;99973.03;;;12.24;100.00
66668;BME280;57205;51.438;-2.006;2023-11-19T11:38:36;99966.34;;;12.21;100.00
66668;BME280;57205;51.438;-2.006;2023-11-19T11:43:52;99960.91;;;12.26;100.00
66668;BME280;57205;51.438;-2.006;2023-11-19T11:49:07;99972.22;;;12.23;100.00
66668;BME280;57205;51.438;-2.006;2023-11-19T11:54:08;99963.56;;;12.26;100.00
66668;BME280;57205;51.438;-2.006;2023-11-19T11:56:37;99973.31;;;12.22;100.00
66668;BME280;57205;51.438;-2.006;2023-11-19T11:59:03;99964.69;;;12.25;100.00
66668;BME280;57205;51.438;-2.006;2023-11-19T12:01:32;99958.50;;;12.25;100.00
66668;BME280;57205;51.438;-2.006;2023-11-19T12:03:58;99963.31;;;12.28;100.00
66668;BME280;57205;51.438;-2.006;2023-11-19T12:06:23;99956.19;;;12.37;100.00
66668;BME280;57205;51.438;-2.006;2023-11-19T12:08:51;99964.97;;;12.42;100.00
66668;BME280;57205;51.438;-2.006;2023-11-19T12:11:34;99958.00;;;12.41;100.00
66668;BME280;57205;51.438;-2.006;2023-11-19T12:14:00;99963.84;;;12.43;100.00
66668;BME280;57205;51.438;-2.006;2023-11-19T12:16:27;99953.22;;;12.38;100.00
66668;BME280;57205;51.438;-2.006;2023-11-19T12:18:54;99960.75;;;12.36;100.00
66668;BME280;57205;51.438;-2.006;2023-11-19T12:21:28;99958.38;;;12.35;100.00
66668;BME280;57205;51.438;-2.006;2023-11-19T12:23:55;99964.66;;;12.44;100.00
66668;BME280;57205;51.438;-2.006;2023-11-19T12:26:35;99959.50;;;12.47;100.00
66668;BME280;57205;51.438;-2.006;2023-11-19T12:29:02;99958.44;;;12.48;100.00
66668;BME280;57205;51.438;-2.006;2023-11-19T12:31:29;99962.56;;;12.41;100.00
66668;BME280;57205;51.438;-2.006;2023-11-19T12:33:55;99961.19;;;12.43;100.00
66668;BME280;57205;51.438;-2.006;2023-11-19T12:36:22;99968.16;;;12.44;100.00
66668;BME280;57205;51.438;-2.006;2023-11-19T12:38:48;99970.84;;;12.44;100.00
66668;BME280;57205;51.438;-2.006;2023-11-19T12:41:14;99963.84;;;12.43;100.00
66668;BME280;57205;51.438;-2.006;2023-11-19T12:43:43;99959.94;;;12.36;100.00
66668;BME280;57205;51.438;-2.006;2023-11-19T12:46:22;99970.91;;;12.39;100.00
66668;BME280;57205;51.438;-2.006;2023-11-19T12:48:49;99960.66;;;12.41;100.00